ADDS METAR Data INFO
IDs: Format: Raw Decoded Include TAF

Data at: 2351 UTC 23 Feb 2018

METAR for:KBOW (Bartow Muni, FL, US)
Text:KBOW 232335Z AUTO 09009KT 9SM CLR 24/15 A3027 RMK AO2
Temperature: 24.0°C ( 75°F)
Dewpoint: 15.0°C ( 59°F) [RH = 57%]
Pressure (altimeter):30.27 inches Hg (1025.1 mb)
Winds:from the E (90 degrees) at 10 MPH (9 knots; 4.6 m/s)
Visibility: 9 sm ( 14 km)
Ceiling:at least 12,000 feet AGL
Clouds:sky clear below 12,000 feet AGL
QC Flag:automated observation with no human augmentation